createdAt,value
2018-02-01T00:00:37.706Z,92.97
2018-02-01T00:01:37.672Z,92.38
2018-02-01T00:02:37.608Z,92.31
2018-02-01T00:03:37.586Z,92.57
2018-02-01T00:04:37.672Z,92.07
2018-02-01T00:05:37.594Z,91.97
2018-02-01T00:06:37.517Z,92.32
2018-02-01T00:07:37.568Z,92.07
2018-02-01T00:08:38.141Z,92.21
2018-02-01T00:09:37.604Z,91.92
2018-02-01T00:10:37.529Z,92.08
2018-02-01T00:11:37.558Z,91.54
2018-02-01T00:12:37.542Z,91.65
2018-02-01T00:13:37.531Z,91.58
2018-02-01T00:14:37.562Z,91.42
2018-02-01T00:15:37.543Z,91.76
2018-02-01T00:16:37.604Z,92.06
2018-02-01T00:17:37.540Z,91.58
2018-02-01T00:18:37.555Z,92.33
2018-02-01T00:19:37.559Z,92.08
2018-02-01T00:20:37.578Z,92.24
2018-02-01T00:21:37.550Z,91.8
2018-02-01T00:22:37.629Z,91.96
2018-02-01T00:23:37.578Z,90.79
2018-02-01T00:24:37.604Z,90.57
2018-02-01T00:25:37.567Z,90.72
2018-02-01T00:26:37.626Z,90.59
2018-02-01T00:27:37.592Z,90.51
2018-02-01T00:28:37.631Z,90.64
2018-02-01T00:29:37.539Z,90.76
2018-02-01T00:30:37.676Z,90.8
2018-02-01T00:31:37.562Z,90.45
2018-02-01T00:32:37.673Z,91.23
2018-02-01T00:33:37.573Z,91.22
2018-02-01T00:34:37.604Z,90.81
2018-02-01T00:35:37.556Z,91.5
2018-02-01T00:36:37.572Z,91.29
2018-02-01T00:37:37.626Z,91.31
2018-02-01T00:38:37.644Z,91.06
2018-02-01T00:39:37.633Z,90.96
2018-02-01T00:40:37.615Z,91.54
2018-02-01T00:41:37.603Z,91.26
2018-02-01T00:42:38.368Z,90.87
2018-02-01T00:43:37.645Z,91.19
2018-02-01T00:44:38.678Z,90.9
2018-02-01T00:45:37.725Z,91.19
2018-02-01T00:46:37.617Z,90.65
2018-02-01T00:47:37.638Z,91.22
2018-02-01T00:48:37.647Z,91.06
2018-02-01T00:49:38.520Z,90.66
2018-02-01T00:50:37.781Z,90.59
2018-02-01T00:51:37.668Z,90.97
2018-02-01T00:52:37.712Z,91.03
2018-02-01T00:53:37.691Z,91.21
2018-02-01T00:54:37.712Z,91.86
2018-02-01T00:55:37.708Z,91.45
2018-02-01T00:56:37.649Z,91.67
2018-02-01T00:57:37.743Z,92.21
2018-02-01T00:58:37.727Z,91.76
2018-02-01T00:59:37.746Z,91.46
2018-02-01T01:00:37.730Z,91.81
2018-02-01T01:01:37.820Z,92.03
2018-02-01T01:02:37.674Z,91.68
2018-02-01T01:03:37.758Z,91.97
2018-02-01T01:04:37.712Z,91.95
2018-02-01T01:05:37.663Z,91.38
2018-02-01T01:06:37.760Z,91.62
2018-02-01T01:07:37.677Z,91.78
2018-02-01T01:08:37.632Z,91.53
2018-02-01T01:09:37.680Z,91.62
2018-02-01T01:10:39.714Z,91.96
2018-02-01T01:11:38.479Z,92.09
2018-02-01T01:12:37.746Z,91.57
2018-02-01T01:13:37.656Z,91.74
2018-02-01T01:14:37.708Z,91.32
2018-02-01T01:15:37.674Z,91.08
2018-02-01T01:16:37.691Z,91.58
2018-02-01T01:17:38.799Z,91.33
2018-02-01T01:18:37.700Z,90.8
2018-02-01T01:19:37.845Z,90.89
2018-02-01T01:20:37.763Z,91.33
2018-02-01T01:21:37.830Z,91.75
2018-02-01T01:22:37.713Z,91.78
2018-02-01T01:23:37.790Z,92.07
2018-02-01T01:24:37.717Z,92.09
2018-02-01T01:25:37.715Z,91.94
2018-02-01T01:26:37.753Z,91.88
2018-02-01T01:27:37.710Z,92.12
2018-02-01T01:28:37.790Z,91.81
2018-02-01T01:29:37.736Z,91.73
2018-02-01T01:30:37.812Z,91.84
2018-02-01T01:31:37.742Z,92.03
2018-02-01T01:32:37.806Z,91.77
2018-02-01T01:33:37.757Z,91.96
2018-02-01T01:34:37.727Z,92.41
2018-02-01T01:35:37.799Z,92.44
2018-02-01T01:36:37.798Z,92.47
2018-02-01T01:37:37.747Z,91.98
2018-02-01T01:38:37.799Z,91.97
2018-02-01T01:39:38.420Z,91.98
2018-02-01T01:40:37.723Z,91.64
2018-02-01T01:41:37.821Z,91.34
2018-02-01T01:42:37.823Z,91.86
2018-02-01T01:43:37.810Z,91.49
2018-02-01T01:44:37.714Z,91.51
2018-02-01T01:45:37.746Z,91.47
2018-02-01T01:46:37.742Z,91.51
2018-02-01T01:47:37.772Z,91.39
2018-02-01T01:48:37.720Z,91.19
2018-02-01T01:49:37.841Z,91.54
2018-02-01T01:50:37.814Z,91.35
2018-02-01T01:51:37.811Z,91.82
2018-02-01T01:52:37.953Z,91.45
2018-02-01T01:53:37.769Z,91.84
2018-02-01T01:54:37.778Z,91.79
2018-02-01T01:55:37.725Z,91.69
2018-02-01T01:56:37.937Z,91.51
2018-02-01T01:57:37.760Z,91.53
2018-02-01T01:58:37.810Z,91.45
2018-02-01T01:59:37.754Z,92.16
2018-02-01T02:00:37.852Z,91.04
2018-02-01T02:01:37.783Z,91.84
2018-02-01T02:02:37.763Z,91.55
2018-02-01T02:03:37.764Z,91.5
2018-02-01T02:04:37.735Z,91.32
2018-02-01T02:05:37.978Z,91.36
2018-02-01T02:06:37.813Z,91.66
2018-02-01T02:07:37.808Z,91.12
2018-02-01T02:08:37.777Z,91.75
2018-02-01T02:09:38.592Z,92.19
2018-02-01T02:10:37.791Z,91.74
2018-02-01T02:11:37.775Z,92.2
2018-02-01T02:12:37.965Z,92.16
2018-02-01T02:13:37.896Z,92.74
2018-02-01T02:14:37.859Z,91.7
2018-02-01T02:15:37.821Z,91.81
2018-02-01T02:16:37.846Z,92.28
2018-02-01T02:17:37.807Z,92.18
2018-02-01T02:18:37.966Z,92.31
2018-02-01T02:19:38.179Z,92.33
2018-02-01T02:20:37.957Z,92.07
2018-02-01T02:21:38.879Z,92.15
2018-02-01T02:22:37.928Z,92.27
2018-02-01T02:23:37.977Z,92.07
2018-02-01T02:24:37.809Z,92.24
2018-02-01T02:25:37.806Z,92.34
2018-02-01T02:26:37.841Z,92.28
2018-02-01T02:27:37.862Z,92.62
2018-02-01T02:28:37.863Z,92.34
2018-02-01T02:29:37.846Z,92.16
2018-02-01T02:30:37.793Z,92
2018-02-01T02:31:37.824Z,91.8
2018-02-01T02:32:37.866Z,91.99
2018-02-01T02:33:38.137Z,92.05
2018-02-01T02:34:37.858Z,92.12
2018-02-01T02:35:37.797Z,91.74
2018-02-01T02:36:38.419Z,91.82
2018-02-01T02:37:37.903Z,92.07
2018-02-01T02:38:39.237Z,91.46
2018-02-01T02:39:38.092Z,91.21
2018-02-01T02:40:37.839Z,91.25
2018-02-01T02:41:37.800Z,90.96
2018-02-01T02:42:38.562Z,91.39
2018-02-01T02:43:37.820Z,91.6
2018-02-01T02:44:37.871Z,91.32
2018-02-01T02:45:37.973Z,91.44
2018-02-01T02:46:37.831Z,91.26
2018-02-01T02:47:37.839Z,91.39
2018-02-01T02:51:14.535Z,91.85
2018-02-01T02:51:38.120Z,91.7
2018-02-01T02:52:37.905Z,91.58
2018-02-01T02:53:37.901Z,91.2
2018-02-01T02:54:37.904Z,91.44
2018-02-01T02:55:38.007Z,92.17
2018-02-01T02:56:37.910Z,91.61
2018-02-01T02:57:37.998Z,91.86
2018-02-01T02:58:37.937Z,91.75
2018-02-01T02:59:37.871Z,91.54
2018-02-01T03:00:37.899Z,91.76
2018-02-01T03:01:37.837Z,91.62
2018-02-01T03:02:37.919Z,91.63
2018-02-01T03:03:37.959Z,91.61
2018-02-01T03:04:37.932Z,91.37
2018-02-01T03:05:37.904Z,91.59
2018-02-01T03:06:37.928Z,91.77
2018-02-01T03:07:37.995Z,91.66
2018-02-01T03:08:37.888Z,91.52
2018-02-01T03:09:38.284Z,91.47
2018-02-01T03:10:37.937Z,91.49
2018-02-01T03:11:37.898Z,91.56
2018-02-01T03:12:37.948Z,91.96
2018-02-01T03:13:37.892Z,92
2018-02-01T03:14:37.998Z,91.97
2018-02-01T03:15:37.955Z,91.62
2018-02-01T03:16:38.029Z,91.8
2018-02-01T03:17:37.931Z,91.38
2018-02-01T03:18:38.636Z,91.46
2018-02-01T03:19:38.021Z,91.6
2018-02-01T03:20:37.904Z,90.95
2018-02-01T03:21:37.971Z,91.11
2018-02-01T03:22:38.009Z,91.55
2018-02-01T03:23:37.926Z,92.03
2018-02-01T03:24:38.205Z,91.68
2018-02-01T03:25:37.922Z,91.66
2018-02-01T03:26:37.888Z,92.25
2018-02-01T03:27:38.030Z,91.83
2018-02-01T03:28:38.006Z,91.74
2018-02-01T03:29:38.044Z,92.1
2018-02-01T03:30:37.998Z,92.33
2018-02-01T03:31:38.534Z,92.43
2018-02-01T03:32:38.019Z,91.92
2018-02-01T03:33:38.058Z,92.11
2018-02-01T03:34:38.058Z,92.46
2018-02-01T03:35:38.050Z,92.73
2018-02-01T03:36:37.996Z,92.67
2018-02-01T03:37:38.016Z,92.6
2018-02-01T03:38:37.969Z,92.93
2018-02-01T03:39:39.001Z,92.56
2018-02-01T03:40:37.981Z,93.11
2018-02-01T03:41:37.887Z,93
2018-02-01T03:42:38.074Z,92.93
2018-02-01T03:43:37.951Z,93.03
2018-02-01T03:44:37.988Z,92.72
2018-02-01T03:45:37.930Z,92.9
2018-02-01T03:46:37.911Z,92.31
2018-02-01T03:47:37.909Z,92.88
2018-02-01T03:48:38.020Z,92.39
2018-02-01T03:49:37.966Z,92.39
2018-02-01T03:50:37.991Z,92.4
2018-02-01T03:51:38.058Z,92.57
2018-02-01T03:52:37.984Z,93.1
2018-02-01T03:55:38.051Z,92.58
2018-02-01T03:56:38.029Z,92.91
2018-02-01T03:57:37.998Z,92.39
2018-02-01T03:58:37.933Z,92.65
2018-02-01T03:59:38.032Z,92.54
2018-02-01T04:00:38.097Z,92.51
2018-02-01T04:01:38.334Z,92.43
2018-02-01T04:02:38.113Z,92.57
2018-02-01T04:03:39.745Z,92.47
2018-02-01T04:04:38.578Z,92.38
2018-02-01T04:05:38.015Z,92.61
2018-02-01T04:06:38.124Z,92.3
2018-02-01T04:07:38.063Z,92.76
2018-02-01T04:08:38.253Z,92.34
2018-02-01T04:09:37.977Z,92.1
2018-02-01T04:10:38.791Z,92.29
2018-02-01T04:11:38.027Z,92.49
2018-02-01T04:12:38.226Z,92.61
2018-02-01T04:13:37.931Z,92.77
2018-02-01T04:14:38.046Z,92.76
2018-02-01T04:15:38.540Z,92.68
2018-02-01T04:16:38.001Z,92.4
2018-02-01T04:17:37.997Z,92.81
2018-02-01T04:18:38.038Z,92.71
2018-02-01T04:19:38.184Z,92.58
2018-02-01T04:20:37.928Z,92.8
2018-02-01T04:21:38.310Z,92.39
2018-02-01T04:22:38.003Z,92.46
2018-02-01T04:23:38.869Z,92.22
2018-02-01T04:24:37.976Z,92.32
2018-02-01T04:25:38.130Z,92.46
2018-02-01T04:26:38.043Z,92.67
2018-02-01T04:27:38.082Z,92.33
2018-02-01T04:28:38.135Z,92.49
2018-02-01T04:29:38.827Z,92.17
2018-02-01T04:30:38.799Z,92.13
2018-02-01T04:31:38.123Z,92.74
2018-02-01T04:32:38.051Z,92.4
2018-02-01T04:33:38.041Z,92.44
2018-02-01T04:34:38.244Z,92.78
2018-02-01T04:35:38.839Z,92.52
2018-02-01T04:36:38.663Z,92.48
2018-02-01T04:37:39.031Z,92.52
2018-02-01T04:38:37.970Z,92.36
2018-02-01T04:39:38.004Z,92.44
2018-02-01T04:40:38.269Z,92.42
2018-02-01T04:41:38.714Z,92.63
2018-02-01T04:42:37.994Z,92.44
2018-02-01T04:43:37.972Z,92.75
2018-02-01T04:44:38.096Z,92.64
2018-02-01T04:45:38.305Z,92.28
2018-02-01T04:46:38.029Z,92.68
2018-02-01T04:47:38.015Z,92.77
2018-02-01T04:48:38.055Z,92.41
2018-02-01T04:52:09.520Z,92.47
2018-02-01T04:52:37.400Z,92.25
2018-02-01T04:53:37.423Z,92.6
2018-02-01T04:54:37.604Z,92.63
2018-02-01T04:55:37.316Z,92.1
2018-02-01T04:56:37.461Z,92.64
2018-02-01T04:57:37.564Z,92.56
2018-02-01T04:58:37.262Z,92.51
2018-02-01T04:59:37.244Z,92.78
2018-02-01T05:00:37.296Z,92.72
2018-02-01T05:01:37.310Z,92.96
2018-02-01T05:02:37.394Z,92.95
2018-02-01T05:03:37.309Z,92.47
2018-02-01T05:04:37.434Z,92.72
2018-02-01T05:05:37.442Z,92.73
2018-02-01T05:06:37.275Z,92.89
2018-02-01T05:07:37.418Z,92.96
2018-02-01T05:08:37.280Z,92.66
2018-02-01T05:09:37.297Z,92.85
2018-02-01T05:10:37.542Z,92.64
2018-02-01T05:11:37.492Z,92.79
2018-02-01T05:12:37.284Z,92.85
2018-02-01T05:13:37.336Z,92.91
2018-02-01T05:14:38.067Z,92.95
2018-02-01T05:15:37.595Z,92.83
2018-02-01T05:16:37.373Z,92.61
2018-02-01T05:17:37.335Z,92.67
2018-02-01T05:18:37.325Z,92.74
2018-02-01T05:19:37.334Z,92.94
2018-02-01T05:20:37.255Z,92.58
2018-02-01T05:21:37.330Z,92.62
2018-02-01T05:22:37.398Z,92.95
2018-02-01T05:23:37.716Z,93.31
2018-02-01T05:24:37.297Z,93.17
2018-02-01T05:25:37.548Z,92.91
2018-02-01T05:26:37.325Z,92.62
2018-02-01T05:27:37.740Z,92.61
2018-02-01T05:28:37.358Z,92.7
2018-02-01T05:29:37.541Z,92.56
2018-02-01T05:30:37.321Z,92.39
2018-02-01T05:31:37.538Z,92.36
2018-02-01T05:32:38.004Z,92.39
2018-02-01T05:33:37.289Z,92.4
2018-02-01T05:34:37.384Z,92.7
2018-02-01T05:35:38.192Z,92.72
2018-02-01T05:36:37.327Z,92.51
2018-02-01T05:37:37.319Z,92.56
2018-02-01T05:38:37.378Z,92.41
2018-02-01T05:39:37.448Z,92.35
2018-02-01T05:40:37.289Z,92.3
2018-02-01T05:41:49.996Z,92.36
2018-02-01T05:42:37.277Z,92.77
2018-02-01T05:43:37.407Z,92.37
2018-02-01T05:44:37.350Z,92.77
2018-02-01T05:45:37.604Z,92.5
2018-02-01T05:46:37.406Z,92.45
2018-02-01T05:47:37.330Z,92.75
2018-02-01T05:48:37.293Z,92.42
2018-02-01T05:49:37.415Z,92.5
2018-02-01T05:50:38.020Z,93.13
2018-02-01T05:51:38.211Z,92.8
2018-02-01T05:52:37.411Z,92.61
2018-02-01T05:53:37.347Z,92.09
2018-02-01T05:54:37.493Z,92.66
2018-02-01T05:55:37.385Z,92.68
2018-02-01T05:56:37.412Z,92.76
2018-02-01T05:57:37.426Z,92.82
2018-02-01T05:58:37.414Z,92.65
2018-02-01T05:59:37.400Z,92.84
2018-02-01T06:00:37.349Z,92.67
2018-02-01T06:01:37.520Z,92.4
2018-02-01T06:02:37.539Z,92.78
2018-02-01T06:03:38.196Z,92.45
2018-02-01T06:04:37.404Z,92.14
2018-02-01T06:05:37.312Z,91.93
2018-02-01T06:06:37.371Z,92.41
2018-02-01T06:07:37.427Z,92.02
2018-02-01T06:08:37.929Z,92.34
2018-02-01T06:09:37.540Z,92.2
2018-02-01T06:10:37.376Z,92.25
2018-02-01T06:11:39.062Z,92.38
2018-02-01T06:12:37.378Z,92.31
2018-02-01T06:13:37.412Z,92.47
2018-02-01T06:14:37.338Z,92.17
2018-02-01T06:15:37.355Z,92.31
2018-02-01T06:16:37.343Z,92.37
2018-02-01T06:17:37.401Z,92.35
2018-02-01T06:18:37.352Z,91.97
2018-02-01T06:19:37.401Z,92.29
2018-02-01T06:20:37.357Z,92.22
2018-02-01T06:21:37.496Z,91.9
2018-02-01T06:22:37.473Z,92.06
2018-02-01T06:23:37.569Z,92.01
2018-02-01T06:24:37.433Z,91.81
2018-02-01T06:25:37.652Z,92.31
2018-02-01T06:26:37.553Z,92.33
2018-02-01T06:27:37.521Z,92.27
2018-02-01T06:28:37.353Z,92.43
2018-02-01T06:29:38.175Z,92.01
2018-02-01T06:30:37.380Z,92.42
2018-02-01T06:31:37.514Z,91.85
2018-02-01T06:32:37.373Z,91.97
2018-02-01T06:33:37.479Z,92.03
2018-02-01T06:34:37.393Z,92.37
2018-02-01T06:35:37.499Z,92.21
2018-02-01T06:36:37.403Z,92.13
2018-02-01T06:37:37.403Z,92.23
2018-02-01T06:38:37.401Z,92.08
2018-02-01T06:39:37.400Z,92.32
2018-02-01T06:40:37.428Z,92.35
2018-02-01T06:41:37.385Z,92.61
2018-02-01T06:42:37.383Z,91.98
2018-02-01T06:43:37.390Z,92.51
2018-02-01T06:44:37.396Z,92.2
2018-02-01T06:45:37.901Z,92.02
2018-02-01T06:46:37.469Z,92.01
2018-02-01T06:47:37.930Z,92.25
2018-02-01T06:48:37.379Z,92.14
2018-02-01T06:49:37.394Z,92.11
2018-02-01T06:50:37.468Z,92.23
2018-02-01T06:51:37.420Z,91.9
2018-02-01T06:52:37.632Z,92
2018-02-01T06:53:37.604Z,91.88
2018-02-01T06:54:37.566Z,91.73
2018-02-01T06:55:37.629Z,91.31
2018-02-01T06:56:37.555Z,91.67
2018-02-01T06:57:37.599Z,91.89
2018-02-01T06:58:37.555Z,92.1
2018-02-01T06:59:37.615Z,92.06
2018-02-01T07:00:37.730Z,91.79
2018-02-01T07:01:37.606Z,91.42
2018-02-01T07:02:37.563Z,91.2
2018-02-01T07:03:37.572Z,91.51
2018-02-01T07:04:37.642Z,91.59
2018-02-01T07:05:37.663Z,91.15
2018-02-01T07:06:37.589Z,90.78
2018-02-01T07:07:37.652Z,90.93
2018-02-01T07:08:37.578Z,91.48
2018-02-01T07:09:37.600Z,91.28
2018-02-01T07:10:37.608Z,90.82
2018-02-01T07:11:37.666Z,90.92
2018-02-01T07:12:37.658Z,90.95
2018-02-01T07:13:37.638Z,90.71
2018-02-01T07:14:37.603Z,90.86
2018-02-01T07:15:37.579Z,91.12
2018-02-01T07:16:37.610Z,90.99
2018-02-01T07:17:37.947Z,90.93
2018-02-01T07:18:37.579Z,90.63
2018-02-01T07:19:37.646Z,90.52
2018-02-01T07:20:37.577Z,90.42
2018-02-01T07:21:37.641Z,90.3
2018-02-01T07:22:37.738Z,90.34
2018-02-01T07:23:37.649Z,90.2
2018-02-01T07:24:37.812Z,89.87
2018-02-01T07:25:37.642Z,90.18
2018-02-01T07:26:37.669Z,90.98
2018-02-01T07:27:37.652Z,90.56
2018-02-01T07:28:37.604Z,90.51
2018-02-01T07:29:37.645Z,90.6
2018-02-01T07:30:37.645Z,90.66
2018-02-01T07:31:37.661Z,90.87
2018-02-01T07:32:37.609Z,90.83
2018-02-01T07:33:37.661Z,90.81
2018-02-01T07:34:37.706Z,90.08
2018-02-01T07:35:37.604Z,90
2018-02-01T07:36:37.620Z,90.36
2018-02-01T07:37:37.688Z,90.22
2018-02-01T07:38:37.669Z,89.77
2018-02-01T07:39:37.684Z,89.75
2018-02-01T07:40:37.965Z,89.9
2018-02-01T07:41:37.620Z,89.73
2018-02-01T07:42:37.617Z,89.77
2018-02-01T07:43:37.614Z,89.95
2018-02-01T07:44:37.639Z,89.6
2018-02-01T07:45:37.808Z,89.37
2018-02-01T07:46:37.627Z,89.84
2018-02-01T07:47:37.942Z,89.96
2018-02-01T07:48:37.667Z,90.36
2018-02-01T07:49:37.654Z,89.87
2018-02-01T07:50:37.663Z,90.19
2018-02-01T07:51:37.612Z,89.97
2018-02-01T07:52:39.063Z,90.16
2018-02-01T07:53:37.816Z,89.89
2018-02-01T07:54:37.690Z,90.05
2018-02-01T07:55:37.850Z,90.21
2018-02-01T07:56:37.729Z,90.16
2018-02-01T07:57:37.663Z,89.47
2018-02-01T07:58:37.728Z,89.91
2018-02-01T07:59:37.665Z,89.73
2018-02-01T08:00:37.707Z,90.07
2018-02-01T08:01:37.680Z,89.72
2018-02-01T08:02:37.657Z,90.21
2018-02-01T08:03:38.721Z,89.88
2018-02-01T08:04:37.724Z,90.03
2018-02-01T08:05:37.820Z,90.66
2018-02-01T08:06:37.693Z,90.15
2018-02-01T08:07:37.780Z,90.19
2018-02-01T08:08:38.595Z,90.1
2018-02-01T08:09:37.644Z,90.03
2018-02-01T08:10:37.633Z,90.04
2018-02-01T08:11:37.705Z,89.41
2018-02-01T08:12:37.705Z,89.46
2018-02-01T08:13:37.717Z,88.53
2018-02-01T08:14:37.726Z,89.19
2018-02-01T08:15:37.722Z,88.87
2018-02-01T08:16:37.793Z,88.71
2018-02-01T08:17:37.708Z,88.96
2018-02-01T08:18:37.726Z,89.35
2018-02-01T08:19:37.680Z,88.79
2018-02-01T08:20:37.722Z,88.66
2018-02-01T08:21:37.749Z,89.05
2018-02-01T08:22:37.793Z,89.18
2018-02-01T08:23:37.785Z,88.55
2018-02-01T08:24:37.769Z,88.8
2018-02-01T08:25:37.733Z,88.75
2018-02-01T08:26:37.978Z,88.43
2018-02-01T08:27:37.733Z,88.25
2018-02-01T08:28:37.719Z,87.72
2018-02-01T08:29:37.714Z,87.73
2018-02-01T08:30:37.850Z,87.84
2018-02-01T08:31:37.777Z,87.78
2018-02-01T08:32:37.755Z,87.87
2018-02-01T08:33:38.013Z,87.82
2018-02-01T08:34:37.747Z,87.62
2018-02-01T08:35:37.685Z,87.53
2018-02-01T08:36:37.780Z,87.68
2018-02-01T08:37:38.280Z,88.04
2018-02-01T08:38:37.990Z,87.76
2018-02-01T08:39:37.781Z,87.68
2018-02-01T08:40:37.695Z,87.63
2018-02-01T08:41:37.773Z,87.58
2018-02-01T08:42:37.719Z,87.52
2018-02-01T08:43:38.253Z,87.56
2018-02-01T08:44:37.717Z,88.21
2018-02-01T08:45:37.784Z,87.65
2018-02-01T08:46:37.739Z,87.48
2018-02-01T08:47:37.820Z,87.45
2018-02-01T08:48:37.768Z,87.67
2018-02-01T08:49:37.772Z,87.37
2018-02-01T08:50:37.718Z,87.68
2018-02-01T08:51:37.735Z,87.17
2018-02-01T08:52:38.155Z,87.34
2018-02-01T08:53:38.127Z,87.41
2018-02-01T08:54:38.072Z,87.31
2018-02-01T08:55:38.199Z,87.28
2018-02-01T08:56:38.114Z,87.33
2018-02-01T08:57:38.130Z,87.64
2018-02-01T08:58:38.115Z,87.55
2018-02-01T08:59:38.109Z,86.84
2018-02-01T09:00:39.068Z,87.2
2018-02-01T09:01:38.133Z,87.55
2018-02-01T09:02:38.221Z,87.5
2018-02-01T09:03:38.100Z,87.21
2018-02-01T09:04:38.172Z,87.04
2018-02-01T09:05:38.041Z,87.46
2018-02-01T09:06:38.095Z,86.92
2018-02-01T09:07:38.086Z,87.56
2018-02-01T09:08:38.330Z,87.5
2018-02-01T09:09:38.103Z,87.68
2018-02-01T09:10:38.078Z,87.01
2018-02-01T09:11:38.062Z,87.83
2018-02-01T09:12:38.131Z,88.21
2018-02-01T09:13:38.118Z,88.11
2018-02-01T09:14:38.386Z,88.48
2018-02-01T09:15:38.018Z,88.01
2018-02-01T09:16:38.069Z,88.21
2018-02-01T09:17:38.952Z,88.63
2018-02-01T09:18:38.079Z,89.07
2018-02-01T09:19:38.035Z,89.74
2018-02-01T09:20:38.044Z,88.85
2018-02-01T09:21:38.051Z,88.68
2018-02-01T09:22:39.380Z,88.79
2018-02-01T09:23:37.224Z,88.93
2018-02-01T09:24:37.182Z,88.76
2018-02-01T09:25:37.239Z,88.96
2018-02-01T09:26:37.174Z,89.75
2018-02-01T09:27:37.238Z,89.62
2018-02-01T09:28:37.296Z,89.8
2018-02-01T09:29:37.280Z,90.16
2018-02-01T09:30:37.209Z,89.11
2018-02-01T09:31:37.199Z,89.26
2018-02-01T09:32:37.221Z,90.04
2018-02-01T09:33:37.232Z,89.69
2018-02-01T09:34:37.248Z,89.47
2018-02-01T09:35:37.247Z,89.09
2018-02-01T09:36:37.277Z,89.23
2018-02-01T09:37:37.239Z,89.31
2018-02-01T09:38:38.168Z,89.14
2018-02-01T09:39:37.396Z,88.85
2018-02-01T09:40:37.222Z,88.92
2018-02-01T09:41:38.112Z,88.88
2018-02-01T09:42:37.315Z,88.78
2018-02-01T09:43:37.948Z,89.05
2018-02-01T09:44:37.262Z,89.31
2018-02-01T09:45:37.193Z,88.85
2018-02-01T09:46:37.225Z,89.46
2018-02-01T09:47:37.183Z,88.49
2018-02-01T09:48:37.304Z,88.67
2018-02-01T09:49:37.240Z,88.96
2018-02-01T09:50:37.267Z,88.86
2018-02-01T09:51:37.239Z,88.77
2018-02-01T09:52:37.266Z,88.46
2018-02-01T09:53:37.319Z,87.99
2018-02-01T09:54:37.375Z,88.43
2018-02-01T09:55:37.378Z,87.88
2018-02-01T09:56:37.397Z,87.5
2018-02-01T09:57:37.322Z,88.27
2018-02-01T09:58:37.368Z,88.13
2018-02-01T09:59:37.373Z,87.96
2018-02-01T10:00:37.357Z,88.04
2018-02-01T10:01:37.423Z,87.2
2018-02-01T10:02:37.356Z,87.86
2018-02-01T10:03:37.346Z,87.9
2018-02-01T10:04:37.366Z,87.86
2018-02-01T10:05:37.280Z,87.93
2018-02-01T10:06:37.319Z,87.97
2018-02-01T10:07:37.280Z,88.18
2018-02-01T10:08:37.276Z,87.35
2018-02-01T10:09:37.272Z,87.44
2018-02-01T10:10:37.264Z,86.73
2018-02-01T10:11:37.273Z,87.4
2018-02-01T10:12:37.314Z,86.99
2018-02-01T10:13:37.336Z,87.67
2018-02-01T10:14:37.337Z,87.8
2018-02-01T10:15:37.277Z,86.93
2018-02-01T10:16:37.226Z,86.78
2018-02-01T10:17:37.273Z,85.44
2018-02-01T10:18:37.214Z,85.81
2018-02-01T10:19:37.300Z,85.25
2018-02-01T10:20:37.269Z,85.08
2018-02-01T10:21:37.278Z,85.3
2018-02-01T10:22:37.233Z,84.9
2018-02-01T10:23:37.431Z,85.53
2018-02-01T10:24:41.049Z,85.7
2018-02-01T10:25:37.416Z,85.41
2018-02-01T10:26:37.341Z,85.33
2018-02-01T10:27:37.362Z,85.65
2018-02-01T10:28:37.362Z,85.61
2018-02-01T10:29:37.397Z,85.47
2018-02-01T10:30:37.375Z,84.83
2018-02-01T10:31:38.260Z,85.04
2018-02-01T10:32:37.383Z,85.2
2018-02-01T10:33:37.367Z,84.75
2018-02-01T10:34:37.388Z,84.52
2018-02-01T10:35:37.347Z,82.68
2018-02-01T10:36:37.514Z,83.29
2018-02-01T10:37:37.338Z,84.23
2018-02-01T10:38:37.332Z,83.95
2018-02-01T10:39:37.367Z,83.89
2018-02-01T10:40:37.525Z,83.44
2018-02-01T10:41:37.389Z,83.42
2018-02-01T10:42:37.399Z,82.83
2018-02-01T10:43:37.334Z,82.52
2018-02-01T10:44:37.673Z,83
2018-02-01T10:45:37.410Z,82.98
2018-02-01T10:46:37.330Z,82.5
2018-02-01T10:47:37.359Z,81.91
2018-02-01T10:48:37.456Z,81.91
2018-02-01T10:49:37.394Z,80.8
2018-02-01T10:50:37.362Z,81.47
2018-02-01T10:51:37.482Z,80.3
2018-02-01T10:52:37.360Z,79.59
2018-02-01T10:53:37.428Z,79.87
2018-02-01T10:54:37.452Z,79.78
2018-02-01T10:55:37.444Z,79.67
2018-02-01T10:56:37.422Z,77.62
2018-02-01T10:57:37.486Z,78.86
2018-02-01T10:58:37.475Z,79.64
2018-02-01T10:59:37.534Z,78.7
2018-02-01T11:00:37.706Z,77.53
2018-02-01T11:01:37.655Z,78.66
2018-02-01T11:02:37.433Z,76.27
2018-02-01T11:03:37.448Z,76.31
2018-02-01T11:04:37.455Z,77.88
2018-02-01T11:05:37.552Z,77.66
2018-02-01T11:06:37.483Z,76.77
2018-02-01T11:07:37.694Z,75.8
2018-02-01T11:08:37.527Z,76.76
2018-02-01T11:09:37.479Z,75.05
2018-02-01T11:10:37.483Z,74.63
2018-02-01T11:11:37.469Z,75.52
2018-02-01T11:12:37.695Z,71.7
2018-02-01T11:13:37.548Z,73.16
2018-02-01T11:14:37.463Z,73.12
2018-02-01T11:15:37.460Z,74.64
2018-02-01T11:16:37.469Z,74.39
2018-02-01T11:17:37.582Z,73.49
2018-02-01T11:18:37.498Z,73.81
2018-02-01T11:19:37.482Z,71.87
2018-02-01T11:20:37.606Z,72.74
2018-02-01T11:21:37.435Z,72.21
2018-02-01T11:22:37.502Z,72.38
2018-02-01T11:23:37.555Z,72.43
2018-02-01T11:24:37.524Z,72.6
2018-02-01T11:25:37.481Z,73.16
2018-02-01T11:26:37.488Z,73.49
2018-02-01T11:27:37.468Z,73.18
2018-02-01T11:28:37.424Z,73.47
2018-02-01T11:29:37.485Z,74.24
2018-02-01T11:30:37.458Z,74.07
2018-02-01T11:31:37.480Z,73.04
2018-02-01T11:32:37.439Z,74.25
2018-02-01T11:33:37.509Z,72.22
2018-02-01T11:34:37.479Z,74.18
2018-02-01T11:35:37.483Z,74.32
2018-02-01T11:36:37.807Z,72.33
2018-02-01T11:37:37.440Z,73.1
2018-02-01T11:38:37.521Z,72.28
2018-02-01T11:39:37.442Z,70.61
2018-02-01T11:40:37.508Z,71.29
2018-02-01T11:41:37.492Z,71.46
2018-02-01T11:42:37.508Z,70.83
2018-02-01T11:43:37.470Z,70.73
2018-02-01T11:44:37.472Z,70.69
2018-02-01T11:45:37.496Z,71.18
2018-02-01T11:46:37.525Z,68.98
2018-02-01T11:47:37.471Z,69.64
2018-02-01T11:48:37.516Z,70.26
2018-02-01T11:49:37.557Z,70.74
2018-02-01T11:50:37.562Z,71.33
2018-02-01T11:51:37.438Z,67.96
2018-02-01T11:52:37.501Z,69.25
2018-02-01T11:53:37.552Z,67.94
2018-02-01T11:54:37.801Z,67.95
2018-02-01T11:55:37.547Z,68.56
2018-02-01T11:56:37.605Z,68.22
2018-02-01T11:57:37.601Z,68.27
2018-02-01T11:58:37.535Z,69.39
2018-02-01T11:59:38.563Z,68.1
2018-02-01T12:00:37.671Z,68.35
2018-02-01T12:01:37.603Z,68.35
2018-02-01T12:02:38.263Z,69
2018-02-01T12:03:37.526Z,68.94
2018-02-01T12:04:37.601Z,68.98
2018-02-01T12:05:37.530Z,67.87
2018-02-01T12:06:37.573Z,69.16
2018-02-01T12:07:39.062Z,67.78
2018-02-01T12:08:37.493Z,67.32
2018-02-01T12:09:37.502Z,66.39
2018-02-01T12:10:37.498Z,67.03
2018-02-01T12:11:37.522Z,66.33
2018-02-01T12:12:37.499Z,66.16
2018-02-01T12:13:39.043Z,67.11
2018-02-01T12:14:37.513Z,67.83
2018-02-01T12:15:37.519Z,67.27
2018-02-01T12:16:37.538Z,67.72
2018-02-01T12:17:37.509Z,66.46
2018-02-01T12:18:38.529Z,67.45
2018-02-01T12:19:37.584Z,67.47
2018-02-01T12:20:37.576Z,68.22
2018-02-01T12:21:37.530Z,68.63
2018-02-01T12:22:37.508Z,68.82
2018-02-01T12:23:40.186Z,68.74
2018-02-01T12:24:37.339Z,68.02
2018-02-01T12:25:37.314Z,68.94
2018-02-01T12:26:37.325Z,67.8
2018-02-01T12:27:37.330Z,69.42
2018-02-01T12:28:37.737Z,69.17
2018-02-01T12:29:37.325Z,68.43
2018-02-01T12:30:37.362Z,68.73
2018-02-01T12:31:37.401Z,69.08
2018-02-01T12:32:37.313Z,68.67
2018-02-01T12:33:37.422Z,68.85
2018-02-01T12:34:37.376Z,68.42
2018-02-01T12:35:38.387Z,68.33
2018-02-01T12:36:37.307Z,68.6
2018-02-01T12:37:37.411Z,68.25
2018-02-01T12:38:37.373Z,68.3
2018-02-01T12:39:37.379Z,67.82
2018-02-01T12:40:37.357Z,67.01
2018-02-01T12:41:37.376Z,67.05
2018-02-01T12:42:37.368Z,68.12
2018-02-01T12:43:37.325Z,67.88
2018-02-01T12:44:37.393Z,68.13
2018-02-01T12:45:37.446Z,68.08
2018-02-01T12:46:38.084Z,67.93
2018-02-01T12:47:37.362Z,67.72
2018-02-01T12:48:37.348Z,67.6
2018-02-01T12:49:37.397Z,67.71
2018-02-01T12:50:37.489Z,69.16
2018-02-01T12:51:37.486Z,68.63
2018-02-01T12:52:37.439Z,67.97
2018-02-01T12:53:37.433Z,67.94
2018-02-01T12:54:37.595Z,68.18
2018-02-01T12:55:37.565Z,69.26
2018-02-01T12:56:37.569Z,68.76
2018-02-01T12:57:37.669Z,68.3
2018-02-01T12:58:37.550Z,68.4
2018-02-01T12:59:37.531Z,68.66
2018-02-01T13:00:37.535Z,68.53
2018-02-01T13:01:37.528Z,69.18